Terminal Aerodrome Forecast
Issued by NWS Chicago, IL

Home | Current Version | Previous Version | Text Only | Print | Product List | Glossary On
Versions: 1 2 3 4 5 6 7 8 9 10 11 12 13 14 15 16 17 18 19 20 21 22 23 24 25 26 27
948
FTUS43 KLOT 091458 AAB
TAFRFD
TAF AMD
KRFD 091458Z 0915/1012 29010KT P6SM SCT027 OVC035
      TEMPO 0915/0917 -SN OVC027
     FM100000 26008KT P6SM SCT025 BKN150=

USA.gov is the U.S. government's official web portal to all federal, state and local government web resources and services.